Data for 08/27/2010

Time Sea-Level Adjusted Pressure Absolute Pressure Temperature Relative Humidity Dew Point   
(mb) (inHg) (mb) (inHg) (C) (F) (%) (C) (F)
00:05 1012 29.88 841 24.83 21 69.8 31 3.3 37.9
00:10 1012 29.88 841 24.83 21.1 70 31 3.3 38
00:15 1012 29.88 841 24.83 21.2 70.2 28 2.1 35.9
00:20 1012 29.88 841 24.83 21.4 70.5 30 3.3 37.9
00:25 1012 29.88 841 24.83 21.2 70.2 29 2.6 36.6
00:30 1012 29.88 841 24.83 21.5 70.6 30 3.3 38
00:35 1012 29.88 841 24.83 21.3 70.3 29 2.8 37
00:40 1012 29.88 841 24.83 21.1 70 29 2.3 36.2
00:45 1012 29.88 841 24.83 22.2 71.9 26 2 35.6
00:50 1012 29.88 841 24.83 22 71.6 28 3 37.3
00:55 1012 29.88 841 24.83 21.6 70.9 28 2.5 36.5
01:00 1012 29.88 841 24.83 21.7 71 27 2.1 35.8
01:05 1012 29.88 841 24.83 21.6 70.9 33 5 41
01:10 1012 29.88 841 24.83 20.8 69.5 32 3.5 38.3
01:15 1012 29.88 841 24.83 21.1 69.9 33 4.4 39.9
01:20 1012 29.88 841 24.83 20.5 68.9 32 3.5 38.3
01:25 1012 29.88 841 24.83 20.6 69.2 32 3.4 38
01:30 1012 29.88 841 24.83 20.8 69.4 30 2.9 37.2
01:35 1012 29.88 841 24.83 21.3 70.4 31 3.5 38.3
01:40 1012 29.88 841 24.83 21.3 70.3 30 3 37.3
01:45 1012 29.88 841 24.83 21.6 70.9 27 2.2 36
01:50 1012 29.88 841 24.83 22.2 72 28 3.2 37.8
01:55 1012 29.88 841 24.83 22.3 72.1 30 4.3 39.7
02:00 1011 29.85 841 24.83 22.2 71.9 28 2.8 37.1
02:05 1011 29.85 841 24.83 21.8 71.3 31 4.1 39.5
02:10 1011 29.85 841 24.83 21.8 71.3 30 3.7 38.6
02:15 1011 29.85 840 24.81 21.2 70.2 32 4.1 39.4
02:20 1011 29.85 840 24.81 20.5 68.8 34 4.1 39.4
02:25 1011 29.85 841 24.83 20.4 68.7 33 3.9 39
02:30 1011 29.85 840 24.81 20.8 69.4 36 5.3 41.6
02:35 1011 29.85 840 24.81 20.9 69.7 31 3.5 38.3
02:40 1011 29.85 840 24.81 21.2 70.1 29 2.7 36.9
02:45 1011 29.85 840 24.81 22.6 72.6 25 1.7 35
02:50 1011 29.85 840 24.81 24.3 75.8 23 1.9 35.4
02:55 1011 29.85 840 24.81 25 77 22 2.3 36.1
03:00 1011 29.85 840 24.81 25.1 77.2 21 1.8 35.2
03:05 1011 29.85 840 24.81 25.1 77.3 22 2.2 35.9
03:10 1011 29.85 840 24.81 25 76.9 22 2 35.7
03:15 1011 29.85 840 24.81 24.9 76.8 22 2.2 36
03:20 1011 29.85 840 24.81 24.7 76.5 23 2.2 35.9
03:25 1011 29.85 840 24.81 24.6 76.3 22 1.7 35.1
03:30 1011 29.85 840 24.81 24.6 76.3 22 1.7 35
03:35 1011 29.85 840 24.81 24.8 76.6 21 1.5 34.7
03:40 1011 29.85 840 24.81 24.7 76.5 23 2.7 36.9
03:45 1011 29.85 840 24.81 24 75.2 25 3.3 37.9
03:50 1011 29.85 840 24.81 23.2 73.8 28 4 39.2
03:55 1011 29.85 840 24.81 22.7 72.8 28 3.5 38.3
04:00 1011 29.85 840 24.81 22.4 72.4 29 3.6 38.5
04:05 1011 29.85 841 24.83 22.3 72.2 28 3.3 37.9
04:10 1011 29.85 841 24.83 22.4 72.2 28 3.2 37.8
04:15 1011 29.85 841 24.83 22.4 72.3 28 3.1 37.7
04:20 1012 29.88 841 24.83 22.2 72 30 4.1 39.4
04:25 1012 29.88 841 24.83 21.5 70.6 33 4.8 40.6
04:30 1012 29.88 841 24.83 20.7 69.3 37 5.6 42.1
04:35 1012 29.88 841 24.83 20.2 68.4 38 5.6 42.1
04:40 1012 29.88 841 24.83 19.8 67.6 40 6 42.8
04:45 1012 29.88 841 24.83 19.5 67.1 41 6.1 42.9
04:50 1012 29.88 841 24.83 19.3 66.7 42 6.3 43.3
04:55 1012 29.88 841 24.83 19.1 66.4 43 6.5 43.7
05:00 1012 29.88 841 24.83 18.8 65.9 45 6.7 44
05:05 1012 29.88 841 24.83 18.6 65.5 43 6 42.8
05:10 1012 29.88 841 24.83 18.8 65.9 44 6.5 43.6
05:15 1012 29.88 841 24.83 18.8 65.9 45 6.8 44.3
05:20 1012 29.88 842 24.86 18.7 65.6 47 7.2 45
05:25 1012 29.88 841 24.83 18.3 65 48 7.3 45.1
05:30 1012 29.88 841 24.83 18.1 64.6 49 7.3 45.1
05:35 1012 29.88 842 24.86 18.1 64.6 48 6.9 44.4
05:40 1013 29.91 842 24.86 18.3 65 47 7.1 44.7
05:45 1013 29.91 842 24.86 18.3 64.9 47 6.8 44.2
05:50 1013 29.91 842 24.86 18.3 65 47 7 44.6
05:55 1013 29.91 842 24.86 18.3 64.9 47 7 44.6
06:00 1013 29.91 842 24.86 18.1 64.7 47 6.7 44.1
06:05 1013 29.91 842 24.86 18.1 64.5 47 6.8 44.2
06:10 1013 29.91 842 24.86 17.7 63.9 47 6.5 43.7
06:15 1013 29.91 842 24.86 17.8 64.1 46 6.3 43.3
06:20 1013 29.91 842 24.86 17.9 64.1 46 6.1 43
06:25 1013 29.91 842 24.86 17.8 64.1 46 6.2 43.2
06:30 1013 29.91 842 24.86 17.6 63.7 47 6.3 43.4
06:35 1013 29.91 842 24.86 17.5 63.4 48 6.3 43.3
06:40 1013 29.91 842 24.86 17.3 63.1 48 6.2 43.1
06:45 1013 29.91 842 24.86 17.1 62.7 47 5.9 42.6
06:50 1013 29.91 843 24.89 17.1 62.7 47 5.8 42.4
06:55 1013 29.91 843 24.89 16.9 62.5 48 6.1 42.9
07:00 1013 29.91 843 24.89 16.7 62 49 6.1 42.9
07:05 1013 29.91 843 24.89 16.6 61.8 50 6.3 43.4
07:10 1013 29.91 843 24.89 16.5 61.7 51 6.4 43.6
07:15 1013 29.91 843 24.89 16.4 61.5 51 6.3 43.4
07:20 1014 29.94 843 24.89 16.5 61.6 53 6.9 44.5
07:25 1014 29.94 843 24.89 16.3 61.3 51 6.3 43.3
07:30 1014 29.94 843 24.89 16.5 61.7 50 6.1 43
07:35 1014 29.94 843 24.89 16.7 62 49 6.2 43.1
07:40 1014 29.94 843 24.89 16.7 62.1 49 6.2 43.1
07:45 1014 29.94 843 24.89 16.8 62.3 49 6.2 43.1
07:50 1014 29.94 843 24.89 16.9 62.5 48 6 42.9
07:55 1014 29.94 843 24.89 17.1 62.8 47 5.9 42.6
08:00 1014 29.94 843 24.89 17.4 63.3 47 6 42.7
08:05 1014 29.94 843 24.89 17.8 64 45 5.9 42.6
08:10 1014 29.94 843 24.89 17.9 64.3 46 6.2 43.2
08:15 1014 29.94 843 24.89 17.9 64.2 47 6.4 43.5
08:20 1014 29.94 843 24.89 18 64.5 47 6.6 44
08:25 1014 29.94 843 24.89 18.1 64.6 45 6.2 43.2
08:30 1014 29.94 843 24.89 18.2 64.7 45 6.1 43.1
08:35 1014 29.94 843 24.89 18.2 64.7 46 6.6 43.8
08:40 1014 29.94 843 24.89 18.3 64.9 47 6.9 44.3
08:45 1014 29.94 843 24.89 18.7 65.6 45 6.8 44.2
08:50 1014 29.94 843 24.89 19 66.2 45 7.1 44.8
08:55 1014 29.94 843 24.89 19.6 67.2 43 6.8 44.2
09:00 1014 29.94 843 24.89 19.6 67.4 42 6.5 43.6
09:05 1014 29.94 843 24.89 19.4 66.8 44 6.8 44.2
09:10 1014 29.94 843 24.89 19.3 66.8 42 6.3 43.3
09:15 1014 29.94 843 24.89 19.5 67.1 41 6 42.8
09:20 1014 29.94 843 24.89 19.3 66.7 43 6.7 44
09:25 1014 29.94 843 24.89 19.3 66.7 42 6.2 43.1
09:30 1014 29.94 843 24.89 19.5 67.1 42 6.4 43.5
09:35 1014 29.94 843 24.89 19.1 66.4 45 7 44.6
09:40 1014 29.94 843 24.89 18.7 65.7 44 6.5 43.8
09:45 1014 29.94 843 24.89 18.9 66 45 6.8 44.3
09:50 1014 29.94 843 24.89 19.3 66.7 44 7 44.5
09:55 1014 29.94 843 24.89 19.5 67 44 7 44.6
10:00 1014 29.94 843 24.89 19.8 67.7 43 7 44.7
10:05 1014 29.94 843 24.89 20.2 68.3 43 7.4 45.3
10:10 1014 29.94 843 24.89 20.3 68.5 43 7.6 45.6
10:15 1014 29.94 843 24.89 20.6 69 42 7.4 45.4
10:20 1014 29.94 843 24.89 20.7 69.2 41 7.1 44.8
10:25 1014 29.94 843 24.89 21.2 70.2 40 7.1 44.9
10:30 1014 29.94 843 24.89 21.4 70.5 39 7.1 44.8
10:35 1014 29.94 843 24.89 21.5 70.7 37 6.4 43.5
10:40 1014 29.94 843 24.89 21.4 70.4 37 6.4 43.5
10:45 1014 29.94 843 24.89 21.5 70.6 38 6.7 44
10:50 1014 29.94 843 24.89 21.6 70.8 37 6.6 43.8
10:55 1014 29.94 843 24.89 21.9 71.3 37 6.7 44.1
11:00 1014 29.94 843 24.89 21.8 71.3 36 6.4 43.5
11:05 1014 29.94 843 24.89 22 71.5 36 6.4 43.5
11:10 1014 29.94 843 24.89 21.8 71.2 36 6.3 43.3
11:15 1014 29.94 843 24.89 22.2 71.9 33 5.5 41.9
11:20 1014 29.94 843 24.89 22.4 72.3 35 6.4 43.6
11:25 1014 29.94 843 24.89 22.3 72.1 35 6.1 43
11:30 1014 29.94 843 24.89 22.6 72.6 34 6.3 43.3
11:35 1014 29.94 843 24.89 22.1 71.8 37 6.8 44.2
11:40 1014 29.94 843 24.89 22.3 72.1 35 6.3 43.3
11:45 1014 29.94 843 24.89 22.4 72.3 37 7.2 44.9
11:50 1014 29.94 843 24.89 21.7 71.1 35 5.8 42.5
11:55 1014 29.94 843 24.89 22.6 72.7 33 5.5 42
12:00 1014 29.94 843 24.89 22.6 72.6 33 5.5 41.9
12:05 1013 29.91 843 24.89 22.7 72.8 33 5.7 42.3
12:10 1013 29.91 843 24.89 22.9 73.3 32 5.5 42
12:15 1013 29.91 843 24.89 23.4 74 33 6.2 43.1
12:20 1013 29.91 843 24.89 22.8 73.1 34 6.3 43.4
12:25 1013 29.91 842 24.86 23.2 73.8 33 6.4 43.5
12:30 1013 29.91 842 24.86 22.7 72.8 33 6 42.7
12:35 1013 29.91 842 24.86 23 73.3 33 6.1 43.1
12:40 1013 29.91 842 24.86 23.6 74.5 33 6.4 43.6
12:45 1013 29.91 842 24.86 23.9 75.1 32 6.3 43.4
12:50 1013 29.91 842 24.86 24.1 75.5 31 6.2 43.2
12:55 1013 29.91 842 24.86 24.2 75.6 31 6.5 43.6
13:00 1013 29.91 842 24.86 24.2 75.5 31 6.2 43.1
13:05 1013 29.91 842 24.86 24.1 75.4 31 6.1 42.9
13:10 1013 29.91 842 24.86 24 75.2 32 6.3 43.4
13:15 1013 29.91 842 24.86 24.1 75.3 31 6 42.8
13:20 1013 29.91 842 24.86 23.7 74.7 31 5.9 42.7
13:25 1013 29.91 842 24.86 23.4 74.1 32 6 42.9
13:30 1012 29.88 842 24.86 23.9 74.9 30 5.5 41.8
13:35 1012 29.88 842 24.86 24.1 75.3 30 5.5 41.9
13:40 1012 29.88 842 24.86 24.3 75.7 30 5.6 42.1
13:45 1012 29.88 842 24.86 24.5 76.1 29 5.3 41.6
13:50 1012 29.88 842 24.86 24.2 75.5 30 5.6 42.1
13:55 1012 29.88 842 24.86 24.8 76.6 27 4.6 40.3
14:00 1012 29.88 841 24.83 24.7 76.5 28 5.4 41.8
14:05 1012 29.88 841 24.83 24.2 75.6 29 5.2 41.4
14:10 1012 29.88 841 24.83 24.1 75.3 29 5.1 41.2
14:15 1012 29.88 841 24.83 23.2 73.7 31 5.5 41.9
14:20 1012 29.88 841 24.83 22.5 72.5 32 5.1 41.2
14:25 1012 29.88 841 24.83 22.6 72.6 31 4.9 40.8
14:30 1012 29.88 841 24.83 22.3 72.1 33 5.2 41.4
14:35 1012 29.88 841 24.83 22.2 72 32 5 41
14:40 1012 29.88 841 24.83 22.6 72.6 31 5 40.9
14:45 1012 29.88 841 24.83 22.8 73.1 31 5.2 41.3
14:50 1012 29.88 841 24.83 22 71.7 37 7 44.7
14:55 1012 29.88 841 24.83 22.2 71.9 37 7.1 44.7
15:00 1012 29.88 841 24.83 21.7 71 36 6.2 43.2
15:05 1012 29.88 841 24.83 21 69.8 41 7.4 45.2
15:10 1012 29.88 841 24.83 20.6 69.1 47 9 48.2
15:15 1012 29.88 841 24.83 20.1 68.1 49 9.2 48.5
15:20 1012 29.88 841 24.83 19.9 67.9 49 9 48.1
15:25 1012 29.88 841 24.83 20 68 48 8.8 47.9
15:30 1012 29.88 841 24.83 20 68 51 9.7 49.5
15:35 1012 29.88 841 24.83 20.2 68.3 52 10.1 50.2
15:40 1012 29.88 841 24.83 19.8 67.6 54 10.4 50.7
15:45 1012 29.88 841 24.83 19.8 67.6 52 9.8 49.6
15:50 1012 29.88 841 24.83 20.1 68.1 58 11.6 52.9
15:55 1012 29.88 841 24.83 20.1 68.1 55 10.7 51.3
16:00 1012 29.88 841 24.83 20.1 68.1 51 9.7 49.5
16:05 1012 29.88 841 24.83 20.4 68.7 49 9.5 49
16:10 1012 29.88 841 24.83 21.4 70.5 43 8.6 47.4
16:15 1012 29.88 841 24.83 22.6 72.6 37 7.4 45.3
16:20 1012 29.88 841 24.83 22.4 72.2 37 7 44.7
16:25 1012 29.88 841 24.83 22.4 72.3 32 5.2 41.3
16:30 1011 29.85 841 24.83 22.9 73.1 31 5.1 41.2
16:35 1011 29.85 841 24.83 23.2 73.8 30 4.8 40.6
16:40 1011 29.85 840 24.81 23.3 73.9 33 6.2 43.2
16:45 1011 29.85 840 24.81 22.5 72.6 34 6 42.9
16:50 1011 29.85 840 24.81 22.6 72.6 34 5.9 42.7
16:55 1011 29.85 840 24.81 22.6 72.7 34 6.3 43.3
17:00 1011 29.85 840 24.81 22.4 72.3 34 6 42.8
17:05 1011 29.85 840 24.81 22 71.6 35 6.1 43.1
17:10 1011 29.85 840 24.81 21.8 71.3 36 6.3 43.3
17:15 1011 29.85 840 24.81 21.6 70.9 38 6.8 44.2
17:20 1011 29.85 840 24.81 21.5 70.7 38 6.6 43.8
17:25 1011 29.85 840 24.81 21.6 70.8 34 5.1 41.2
17:30 1011 29.85 840 24.81 21.5 70.7 34 5.1 41.1
17:35 1011 29.85 840 24.81 21.8 71.2 33 4.9 40.7
17:40 1011 29.85 840 24.81 22.2 72 32 5.2 41.3
17:45 1011 29.85 840 24.81 22 71.6 34 5.7 42.2
17:50 1011 29.85 840 24.81 21.8 71.2 36 6.3 43.3
17:55 1011 29.85 840 24.81 21.6 70.9 39 7.1 44.7
18:00 1011 29.85 840 24.81 21.5 70.6 40 7.3 45.2
18:05 1011 29.85 840 24.81 21.4 70.6 41 7.7 45.9
18:10 1011 29.85 840 24.81 21.2 70.2 44 8.5 47.4
18:15 1011 29.85 840 24.81 21.1 69.9 45 8.8 47.8
18:20 1011 29.85 840 24.81 20.9 69.7 45 8.8 47.9
18:25 1011 29.85 840 24.81 21.1 69.9 44 8.5 47.2
18:30 1011 29.85 840 24.81 21 69.9 45 8.9 48
18:35 1011 29.85 840 24.81 20.9 69.6 44 8.4 47.2
18:40 1011 29.85 840 24.81 20.9 69.6 44 8.4 47.1
18:45 1011 29.85 840 24.81 20.8 69.4 44 8.3 46.9
18:50 1011 29.85 840 24.81 20.7 69.3 44 8.1 46.6
18:55 1011 29.85 840 24.81 20.6 69 45 8.3 46.9
19:00 1011 29.85 840 24.81 20.5 68.9 44 8.1 46.5
19:05 1011 29.85 840 24.81 20.3 68.5 45 8.2 46.8
19:10 1011 29.85 840 24.81 20.1 68.2 45 8.1 46.6
19:15 1011 29.85 840 24.81 20.1 68.1 46 8.2 46.7
19:20 1011 29.85 840 24.81 20.1 68.1 46 8.2 46.7
19:25 1011 29.85 840 24.81 20.1 68.1 43 7.2 45
19:30 1011 29.85 840 24.81 20.1 68.1 43 7.4 45.2
19:35 1011 29.85 840 24.81 20.1 68.1 42 7 44.6
19:40 1011 29.85 840 24.81 20 67.9 43 7.1 44.7
19:45 1011 29.85 840 24.81 19.9 67.7 43 6.9 44.4
19:50 1011 29.85 840 24.81 19.5 67.1 44 7.1 44.8
19:55 1011 29.85 840 24.81 19.4 66.9 44 7 44.6
20:00 1011 29.85 840 24.81 19.3 66.8 47 7.9 46.2
20:05 1011 29.85 840 24.81 19.1 66.3 48 8.1 46.5
20:10 1011 29.85 840 24.81 18.9 65.9 49 8 46.4
20:15 1011 29.85 840 24.81 18.7 65.6 48 7.7 45.9
20:20 1011 29.85 840 24.81 18.6 65.4 49 7.8 46.1
20:25 1011 29.85 840 24.81 18.4 65.1 50 7.8 46.1
20:30 1011 29.85 840 24.81 18.3 64.9 52 8.5 47.3
20:35 1011 29.85 840 24.81 18.1 64.6 51 7.9 46.2
20:40 1011 29.85 840 24.81 18 64.4 52 8 46.4
20:45 1011 29.85 840 24.81 17.9 64.2 52 7.9 46.3
20:50 1011 29.85 841 24.83 17.8 64 53 8.1 46.6
20:55 1011 29.85 841 24.83 17.6 63.7 54 8.2 46.7
21:00 1011 29.85 841 24.83 17.5 63.5 54 8.1 46.6
21:05 1011 29.85 841 24.83 17.5 63.4 54 8 46.5
21:10 1012 29.88 841 24.83 17.5 63.4 54 8 46.5
21:15 1012 29.88 841 24.83 17.4 63.3 53 7.9 46.3
21:20 1012 29.88 841 24.83 17.4 63.3 54 8 46.4
21:25 1012 29.88 841 24.83 17.3 63.1 54 8 46.4
21:30 1012 29.88 841 24.83 17.2 62.9 55 8.2 46.8
21:35 1012 29.88 841 24.83 17 62.6 56 8.2 46.7
21:40 1012 29.88 841 24.83 16.8 62.3 56 8.1 46.6
21:45 1012 29.88 841 24.83 16.8 62.2 56 8.2 46.7
21:50 1012 29.88 841 24.83 16.7 62 56 8 46.4
21:55 1012 29.88 841 24.83 16.6 62 56 7.8 46
22:00 1012 29.88 841 24.83 16.7 62 54 7.5 45.5
22:05 1012 29.88 841 24.83 16.6 61.9 54 7.4 45.3
22:10 1012 29.88 841 24.83 16.5 61.6 55 7.4 45.4
22:15 1012 29.88 841 24.83 16.3 61.3 54 7.2 44.9
22:20 1012 29.88 841 24.83 16.3 61.3 53 6.8 44.3
22:25 1012 29.88 841 24.83 16.2 61.1 53 6.6 43.9
22:30 1012 29.88 841 24.83 16.2 61.1 52 6.4 43.5
22:35 1012 29.88 841 24.83 16 60.9 52 6.4 43.5
22:40 1012 29.88 841 24.83 15.9 60.7 52 6.1 43
22:45 1012 29.88 841 24.83 15.9 60.5 53 6.4 43.5
22:50 1012 29.88 841 24.83 15.7 60.3 53 6.3 43.3
22:55 1012 29.88 841 24.83 15.8 60.4 54 6.5 43.8
23:00 1012 29.88 841 24.83 15.6 60 56 6.9 44.4
23:05 1012 29.88 841 24.83 15.4 59.7 58 7.1 44.8
23:10 1012 29.88 841 24.83 15.2 59.3 59 7.2 45
23:15 1012 29.88 841 24.83 15 59 59 7.2 45
23:20 1012 29.88 841 24.83 15 59 60 7.3 45.1
23:25 1012 29.88 841 24.83 14.8 58.7 60 7.3 45.1
23:30 1012 29.88 841 24.83 14.6 58.4 61 7.3 45.1
23:35 1012 29.88 841 24.83 14.5 58.1 63 7.7 45.8
23:40 1012 29.88 841 24.83 14.4 57.8 64 7.6 45.7
23:45 1012 29.88 841 24.83 14.4 57.9 64 7.8 46
23:50 1012 29.88 841 24.83 14.3 57.7 64 7.7 45.8
23:55 1012 29.88 841 24.83 14.3 57.7 64 7.6 45.7
24:00 1012 29.88 841 24.83 14.2 57.6 64 7.6 45.7